sensor_id;sensor_type;location;lat;lon;timestamp;temperature;humidity
41294;DHT22;27037;52.010;4.446;2023-07-29T00:01:31;18.60;99.90
41294;DHT22;27037;52.010;4.446;2023-07-29T00:03:57;18.60;99.90
41294;DHT22;27037;52.010;4.446;2023-07-29T00:06:23;18.60;99.90
41294;DHT22;27037;52.010;4.446;2023-07-29T00:08:49;18.50;99.90
41294;DHT22;27037;52.010;4.446;2023-07-29T00:11:14;18.50;99.90
41294;DHT22;27037;52.010;4.446;2023-07-29T00:13:40;18.50;99.90
41294;DHT22;27037;52.010;4.446;2023-07-29T00:16:05;18.50;99.90
41294;DHT22;27037;52.010;4.446;2023-07-29T00:18:31;18.40;99.90
41294;DHT22;27037;52.010;4.446;2023-07-29T00:20:58;18.40;99.90
41294;DHT22;27037;52.010;4.446;2023-07-29T00:23:23;18.30;99.90
41294;DHT22;27037;52.010;4.446;2023-07-29T00:25:49;18.30;99.90
41294;DHT22;27037;52.010;4.446;2023-07-29T00:28:15;18.20;99.90
41294;DHT22;27037;52.010;4.446;2023-07-29T00:30:40;18.20;99.90
41294;DHT22;27037;52.010;4.446;2023-07-29T00:33:06;18.20;99.90
41294;DHT22;27037;52.010;4.446;2023-07-29T00:35:32;18.10;99.90
41294;DHT22;27037;52.010;4.446;2023-07-29T00:37:57;18.10;99.90
41294;DHT22;27037;52.010;4.446;2023-07-29T00:40:23;18.10;99.90
41294;DHT22;27037;52.010;4.446;2023-07-29T00:42:49;18.10;99.90
41294;DHT22;27037;52.010;4.446;2023-07-29T00:45:16;18.00;99.90
41294;DHT22;27037;52.010;4.446;2023-07-29T00:47:42;18.00;99.90
41294;DHT22;27037;52.010;4.446;2023-07-29T00:50:11;18.00;99.90
41294;DHT22;27037;52.010;4.446;2023-07-29T00:52:37;18.00;99.90
41294;DHT22;27037;52.010;4.446;2023-07-29T00:55:04;18.00;99.90
41294;DHT22;27037;52.010;4.446;2023-07-29T00:57:30;17.90;99.90
41294;DHT22;27037;52.010;4.446;2023-07-29T00:59:56;17.90;99.90
41294;DHT22;27037;52.010;4.446;2023-07-29T01:02:22;17.90;99.90
41294;DHT22;27037;52.010;4.446;2023-07-29T01:04:56;17.90;99.90
41294;DHT22;27037;52.010;4.446;2023-07-29T01:07:33;17.90;99.90
41294;DHT22;27037;52.010;4.446;2023-07-29T01:10:13;17.90;99.90
41294;DHT22;27037;52.010;4.446;2023-07-29T01:13:17;17.90;99.90
41294;DHT22;27037;52.010;4.446;2023-07-29T01:16:00;17.90;99.90
41294;DHT22;27037;52.010;4.446;2023-07-29T01:18:31;17.90;99.90
41294;DHT22;27037;52.010;4.446;2023-07-29T01:20:59;17.80;99.90
41294;DHT22;27037;52.010;4.446;2023-07-29T01:23:31;17.80;99.90
41294;DHT22;27037;52.010;4.446;2023-07-29T01:25:57;17.80;99.90
41294;DHT22;27037;52.010;4.446;2023-07-29T01:28:23;17.80;99.90
41294;DHT22;27037;52.010;4.446;2023-07-29T01:30:55;17.80;99.90
41294;DHT22;27037;52.010;4.446;2023-07-29T01:33:26;17.90;99.90
41294;DHT22;27037;52.010;4.446;2023-07-29T01:35:58;17.80;99.90
41294;DHT22;27037;52.010;4.446;2023-07-29T01:38:33;17.90;99.90
41294;DHT22;27037;52.010;4.446;2023-07-29T01:41:06;17.80;99.90
41294;DHT22;27037;52.010;4.446;2023-07-29T01:43:33;17.80;99.90
41294;DHT22;27037;52.010;4.446;2023-07-29T01:46:00;17.80;99.90
41294;DHT22;27037;52.010;4.446;2023-07-29T01:48:26;17.80;99.90
41294;DHT22;27037;52.010;4.446;2023-07-29T01:50:53;17.80;99.90
41294;DHT22;27037;52.010;4.446;2023-07-29T01:53:18;17.80;99.90
41294;DHT22;27037;52.010;4.446;2023-07-29T01:55:44;17.80;99.90
41294;DHT22;27037;52.010;4.446;2023-07-29T01:58:10;17.70;99.90
41294;DHT22;27037;52.010;4.446;2023-07-29T02:00:36;17.70;99.90
41294;DHT22;27037;52.010;4.446;2023-07-29T02:03:02;17.70;99.90
41294;DHT22;27037;52.010;4.446;2023-07-29T02:05:27;17.70;99.90
41294;DHT22;27037;52.010;4.446;2023-07-29T02:07:53;17.60;99.90
41294;DHT22;27037;52.010;4.446;2023-07-29T02:10:19;17.60;99.90
41294;DHT22;27037;52.010;4.446;2023-07-29T02:12:44;17.60;99.90
41294;DHT22;27037;52.010;4.446;2023-07-29T02:15:10;17.60;99.90
41294;DHT22;27037;52.010;4.446;2023-07-29T02:17:36;17.60;99.90
41294;DHT22;27037;52.010;4.446;2023-07-29T02:20:02;17.60;99.90
41294;DHT22;27037;52.010;4.446;2023-07-29T02:22:29;17.60;99.90
41294;DHT22;27037;52.010;4.446;2023-07-29T02:24:55;17.60;99.90
41294;DHT22;27037;52.010;4.446;2023-07-29T02:27:20;17.60;99.90
41294;DHT22;27037;52.010;4.446;2023-07-29T02:29:46;17.60;99.90
41294;DHT22;27037;52.010;4.446;2023-07-29T02:32:12;17.60;99.90
41294;DHT22;27037;52.010;4.446;2023-07-29T02:34:37;17.50;99.90
41294;DHT22;27037;52.010;4.446;2023-07-29T02:37:03;17.60;99.90
41294;DHT22;27037;52.010;4.446;2023-07-29T02:39:29;17.50;99.90
41294;DHT22;27037;52.010;4.446;2023-07-29T02:41:54;17.50;99.90
41294;DHT22;27037;52.010;4.446;2023-07-29T02:44:21;17.50;99.90
41294;DHT22;27037;52.010;4.446;2023-07-29T02:46:47;17.50;99.90
41294;DHT22;27037;52.010;4.446;2023-07-29T02:49:12;17.50;99.90
41294;DHT22;27037;52.010;4.446;2023-07-29T02:51:38;17.50;99.90
41294;DHT22;27037;52.010;4.446;2023-07-29T02:54:03;17.50;99.90
41294;DHT22;27037;52.010;4.446;2023-07-29T02:56:29;17.50;99.90
41294;DHT22;27037;52.010;4.446;2023-07-29T02:58:56;17.50;99.90
41294;DHT22;27037;52.010;4.446;2023-07-29T03:01:23;17.50;99.90
41294;DHT22;27037;52.010;4.446;2023-07-29T03:03:50;17.50;99.90
41294;DHT22;27037;52.010;4.446;2023-07-29T03:06:16;17.50;99.90
41294;DHT22;27037;52.010;4.446;2023-07-29T03:08:42;17.50;99.90
41294;DHT22;27037;52.010;4.446;2023-07-29T03:11:12;17.50;99.90
41294;DHT22;27037;52.010;4.446;2023-07-29T03:13:38;17.40;99.90
41294;DHT22;27037;52.010;4.446;2023-07-29T03:16:08;17.40;99.90
41294;DHT22;27037;52.010;4.446;2023-07-29T03:18:35;17.40;99.90
41294;DHT22;27037;52.010;4.446;2023-07-29T03:21:01;17.50;99.90
41294;DHT22;27037;52.010;4.446;2023-07-29T03:23:28;17.50;99.90
41294;DHT22;27037;52.010;4.446;2023-07-29T03:25:58;17.50;99.90
41294;DHT22;27037;52.010;4.446;2023-07-29T03:28:30;17.50;99.90
41294;DHT22;27037;52.010;4.446;2023-07-29T03:30:56;17.60;99.90
41294;DHT22;27037;52.010;4.446;2023-07-29T03:33:22;17.60;99.90
41294;DHT22;27037;52.010;4.446;2023-07-29T03:35:48;17.60;99.90
41294;DHT22;27037;52.010;4.446;2023-07-29T03:38:14;17.60;99.90
41294;DHT22;27037;52.010;4.446;2023-07-29T03:40:40;17.70;99.90
41294;DHT22;27037;52.010;4.446;2023-07-29T03:43:06;17.60;99.90
41294;DHT22;27037;52.010;4.446;2023-07-29T03:45:33;17.70;99.90
41294;DHT22;27037;52.010;4.446;2023-07-29T03:47:58;17.60;99.90
41294;DHT22;27037;52.010;4.446;2023-07-29T03:50:24;17.70;99.90
41294;DHT22;27037;52.010;4.446;2023-07-29T03:52:50;17.60;99.90
41294;DHT22;27037;52.010;4.446;2023-07-29T03:55:16;17.70;99.90
41294;DHT22;27037;52.010;4.446;2023-07-29T03:57:42;17.70;99.90
41294;DHT22;27037;52.010;4.446;2023-07-29T04:00:07;17.70;99.90
41294;DHT22;27037;52.010;4.446;2023-07-29T04:02:34;17.70;99.90
41294;DHT22;27037;52.010;4.446;2023-07-29T04:05:03;17.70;99.90
41294;DHT22;27037;52.010;4.446;2023-07-29T04:07:29;17.70;99.90
41294;DHT22;27037;52.010;4.446;2023-07-29T04:09:55;17.70;99.90
41294;DHT22;27037;52.010;4.446;2023-07-29T04:12:20;17.70;99.90
41294;DHT22;27037;52.010;4.446;2023-07-29T04:14:47;17.70;99.90
41294;DHT22;27037;52.010;4.446;2023-07-29T04:17:13;17.70;99.90
41294;DHT22;27037;52.010;4.446;2023-07-29T04:19:38;17.70;99.90
41294;DHT22;27037;52.010;4.446;2023-07-29T04:22:04;17.70;99.90
41294;DHT22;27037;52.010;4.446;2023-07-29T04:24:30;17.70;99.90
41294;DHT22;27037;52.010;4.446;2023-07-29T04:26:55;17.70;99.90
41294;DHT22;27037;52.010;4.446;2023-07-29T04:29:21;17.70;99.90
41294;DHT22;27037;52.010;4.446;2023-07-29T04:31:48;17.70;99.90
41294;DHT22;27037;52.010;4.446;2023-07-29T04:34:14;17.70;99.90
41294;DHT22;27037;52.010;4.446;2023-07-29T04:36:40;17.70;99.90
41294;DHT22;27037;52.010;4.446;2023-07-29T04:39:05;17.70;99.90
41294;DHT22;27037;52.010;4.446;2023-07-29T04:41:31;17.70;99.90
41294;DHT22;27037;52.010;4.446;2023-07-29T04:43:56;17.70;99.90
41294;DHT22;27037;52.010;4.446;2023-07-29T04:46:22;17.70;99.90
41294;DHT22;27037;52.010;4.446;2023-07-29T04:48:48;17.70;99.90
41294;DHT22;27037;52.010;4.446;2023-07-29T04:51:13;17.70;99.90
41294;DHT22;27037;52.010;4.446;2023-07-29T04:53:39;17.70;99.90
41294;DHT22;27037;52.010;4.446;2023-07-29T04:56:05;17.70;99.90
41294;DHT22;27037;52.010;4.446;2023-07-29T04:58:31;17.70;99.90
41294;DHT22;27037;52.010;4.446;2023-07-29T05:01:00;17.70;99.90
41294;DHT22;27037;52.010;4.446;2023-07-29T05:03:25;17.70;99.90
41294;DHT22;27037;52.010;4.446;2023-07-29T05:05:51;17.70;99.90
41294;DHT22;27037;52.010;4.446;2023-07-29T05:08:18;17.70;99.90
41294;DHT22;27037;52.010;4.446;2023-07-29T05:10:44;17.70;99.90
41294;DHT22;27037;52.010;4.446;2023-07-29T05:13:13;17.70;99.90
41294;DHT22;27037;52.010;4.446;2023-07-29T05:15:39;17.80;99.90
41294;DHT22;27037;52.010;4.446;2023-07-29T05:18:04;17.80;99.90
41294;DHT22;27037;52.010;4.446;2023-07-29T05:20:30;17.80;99.90
41294;DHT22;27037;52.010;4.446;2023-07-29T05:22:56;17.80;99.90
41294;DHT22;27037;52.010;4.446;2023-07-29T05:25:21;17.80;99.90
41294;DHT22;27037;52.010;4.446;2023-07-29T05:27:47;17.90;99.90
41294;DHT22;27037;52.010;4.446;2023-07-29T05:30:12;17.90;99.90
41294;DHT22;27037;52.010;4.446;2023-07-29T05:32:38;17.90;99.90
41294;DHT22;27037;52.010;4.446;2023-07-29T05:35:04;17.90;99.90
41294;DHT22;27037;52.010;4.446;2023-07-29T05:37:30;18.00;99.90
41294;DHT22;27037;52.010;4.446;2023-07-29T05:39:55;18.00;99.90
41294;DHT22;27037;52.010;4.446;2023-07-29T05:42:21;18.00;99.90
41294;DHT22;27037;52.010;4.446;2023-07-29T05:44:46;18.00;99.90
41294;DHT22;27037;52.010;4.446;2023-07-29T05:47:12;18.10;99.90
41294;DHT22;27037;52.010;4.446;2023-07-29T05:49:38;18.10;99.90
41294;DHT22;27037;52.010;4.446;2023-07-29T05:52:03;18.10;99.90
41294;DHT22;27037;52.010;4.446;2023-07-29T05:54:29;18.20;99.90
41294;DHT22;27037;52.010;4.446;2023-07-29T05:56:55;18.20;99.90
41294;DHT22;27037;52.010;4.446;2023-07-29T05:59:20;18.20;99.90
41294;DHT22;27037;52.010;4.446;2023-07-29T06:01:46;18.20;99.90
41294;DHT22;27037;52.010;4.446;2023-07-29T06:04:12;18.20;99.90
41294;DHT22;27037;52.010;4.446;2023-07-29T06:06:37;18.30;99.90
41294;DHT22;27037;52.010;4.446;2023-07-29T06:09:03;18.30;99.90
41294;DHT22;27037;52.010;4.446;2023-07-29T06:11:28;18.40;99.90
41294;DHT22;27037;52.010;4.446;2023-07-29T06:13:54;18.40;99.90
41294;DHT22;27037;52.010;4.446;2023-07-29T06:16:20;18.40;99.90
41294;DHT22;27037;52.010;4.446;2023-07-29T06:18:45;18.40;99.90
41294;DHT22;27037;52.010;4.446;2023-07-29T06:21:11;18.40;99.90
41294;DHT22;27037;52.010;4.446;2023-07-29T06:23:42;18.50;99.90
41294;DHT22;27037;52.010;4.446;2023-07-29T06:26:08;18.50;99.90
41294;DHT22;27037;52.010;4.446;2023-07-29T06:28:34;18.50;99.90
41294;DHT22;27037;52.010;4.446;2023-07-29T06:31:00;18.60;99.90
41294;DHT22;27037;52.010;4.446;2023-07-29T06:33:25;18.60;99.90
41294;DHT22;27037;52.010;4.446;2023-07-29T06:35:51;18.70;99.90
41294;DHT22;27037;52.010;4.446;2023-07-29T06:38:16;18.70;99.90
41294;DHT22;27037;52.010;4.446;2023-07-29T06:40:47;18.70;99.90
41294;DHT22;27037;52.010;4.446;2023-07-29T06:43:13;18.80;99.90
41294;DHT22;27037;52.010;4.446;2023-07-29T06:45:38;18.80;99.90
41294;DHT22;27037;52.010;4.446;2023-07-29T06:48:04;18.90;99.90
41294;DHT22;27037;52.010;4.446;2023-07-29T06:50:30;18.90;99.90
41294;DHT22;27037;52.010;4.446;2023-07-29T06:52:55;19.00;99.90
41294;DHT22;27037;52.010;4.446;2023-07-29T06:55:21;19.00;99.90
41294;DHT22;27037;52.010;4.446;2023-07-29T06:57:46;19.10;99.90
41294;DHT22;27037;52.010;4.446;2023-07-29T07:00:12;19.10;99.90
41294;DHT22;27037;52.010;4.446;2023-07-29T07:02:38;19.10;99.90
41294;DHT22;27037;52.010;4.446;2023-07-29T07:05:04;19.10;99.90
41294;DHT22;27037;52.010;4.446;2023-07-29T07:07:30;19.10;99.90
41294;DHT22;27037;52.010;4.446;2023-07-29T07:09:56;19.10;99.90
41294;DHT22;27037;52.010;4.446;2023-07-29T07:12:22;19.20;99.90
41294;DHT22;27037;52.010;4.446;2023-07-29T07:14:47;19.30;99.90
41294;DHT22;27037;52.010;4.446;2023-07-29T07:17:13;19.30;99.90
41294;DHT22;27037;52.010;4.446;2023-07-29T07:19:39;19.50;99.90
41294;DHT22;27037;52.010;4.446;2023-07-29T07:22:05;19.60;99.90
41294;DHT22;27037;52.010;4.446;2023-07-29T07:24:30;19.70;99.90
41294;DHT22;27037;52.010;4.446;2023-07-29T07:26:56;19.80;99.90
41294;DHT22;27037;52.010;4.446;2023-07-29T07:29:22;19.90;99.90
41294;DHT22;27037;52.010;4.446;2023-07-29T07:31:52;19.90;99.90
41294;DHT22;27037;52.010;4.446;2023-07-29T07:34:19;19.90;99.90
41294;DHT22;27037;52.010;4.446;2023-07-29T07:36:45;19.90;99.90
41294;DHT22;27037;52.010;4.446;2023-07-29T07:39:11;19.80;99.90
41294;DHT22;27037;52.010;4.446;2023-07-29T07:41:37;19.80;99.90
41294;DHT22;27037;52.010;4.446;2023-07-29T07:44:02;19.80;99.90
41294;DHT22;27037;52.010;4.446;2023-07-29T07:46:29;19.80;99.90
41294;DHT22;27037;52.010;4.446;2023-07-29T07:48:54;19.90;99.90
41294;DHT22;27037;52.010;4.446;2023-07-29T07:51:20;20.00;99.90
41294;DHT22;27037;52.010;4.446;2023-07-29T07:53:45;20.10;99.90
41294;DHT22;27037;52.010;4.446;2023-07-29T07:56:11;20.10;99.90
41294;DHT22;27037;52.010;4.446;2023-07-29T07:58:38;20.20;99.90
41294;DHT22;27037;52.010;4.446;2023-07-29T08:01:05;20.40;99.90
41294;DHT22;27037;52.010;4.446;2023-07-29T08:03:31;20.50;99.90
41294;DHT22;27037;52.010;4.446;2023-07-29T08:05:57;20.60;99.90
41294;DHT22;27037;52.010;4.446;2023-07-29T08:08:23;20.70;99.90
41294;DHT22;27037;52.010;4.446;2023-07-29T08:10:48;20.80;99.90
41294;DHT22;27037;52.010;4.446;2023-07-29T08:13:14;20.90;99.90
41294;DHT22;27037;52.010;4.446;2023-07-29T08:15:40;20.90;99.90
41294;DHT22;27037;52.010;4.446;2023-07-29T08:18:06;21.00;99.90
41294;DHT22;27037;52.010;4.446;2023-07-29T08:20:32;21.00;99.90
41294;DHT22;27037;52.010;4.446;2023-07-29T08:22:58;21.00;99.90
41294;DHT22;27037;52.010;4.446;2023-07-29T08:25:24;21.00;99.90
41294;DHT22;27037;52.010;4.446;2023-07-29T08:27:49;21.00;99.90
41294;DHT22;27037;52.010;4.446;2023-07-29T08:30:15;21.00;99.90
41294;DHT22;27037;52.010;4.446;2023-07-29T08:32:41;21.00;99.90
41294;DHT22;27037;52.010;4.446;2023-07-29T08:35:07;21.00;99.90
41294;DHT22;27037;52.010;4.446;2023-07-29T08:37:33;21.00;99.90
41294;DHT22;27037;52.010;4.446;2023-07-29T08:39:59;21.00;99.90
41294;DHT22;27037;52.010;4.446;2023-07-29T08:42:29;21.00;99.90
41294;DHT22;27037;52.010;4.446;2023-07-29T08:44:56;20.90;99.90
41294;DHT22;27037;52.010;4.446;2023-07-29T08:47:24;20.90;99.90
41294;DHT22;27037;52.010;4.446;2023-07-29T08:49:51;20.80;99.90
41294;DHT22;27037;52.010;4.446;2023-07-29T08:52:18;20.60;99.90
41294;DHT22;27037;52.010;4.446;2023-07-29T08:54:44;20.50;99.90
41294;DHT22;27037;52.010;4.446;2023-07-29T08:57:10;20.40;99.90
41294;DHT22;27037;52.010;4.446;2023-07-29T08:59:50;20.30;99.90
41294;DHT22;27037;52.010;4.446;2023-07-29T09:02:16;20.20;99.90
41294;DHT22;27037;52.010;4.446;2023-07-29T09:04:42;20.20;99.90
41294;DHT22;27037;52.010;4.446;2023-07-29T09:07:08;20.20;99.90
41294;DHT22;27037;52.010;4.446;2023-07-29T09:09:35;20.20;99.90
41294;DHT22;27037;52.010;4.446;2023-07-29T09:12:01;20.20;99.90
41294;DHT22;27037;52.010;4.446;2023-07-29T09:14:26;20.30;99.90
41294;DHT22;27037;52.010;4.446;2023-07-29T09:16:53;20.30;99.90
41294;DHT22;27037;52.010;4.446;2023-07-29T09:19:19;20.40;99.90
41294;DHT22;27037;52.010;4.446;2023-07-29T09:21:46;20.40;99.90
41294;DHT22;27037;52.010;4.446;2023-07-29T09:24:12;20.50;99.90
41294;DHT22;27037;52.010;4.446;2023-07-29T09:26:49;20.50;99.90
41294;DHT22;27037;52.010;4.446;2023-07-29T09:29:14;20.60;99.90
41294;DHT22;27037;52.010;4.446;2023-07-29T09:31:40;20.70;99.90
41294;DHT22;27037;52.010;4.446;2023-07-29T09:34:06;20.70;99.90
41294;DHT22;27037;52.010;4.446;2023-07-29T09:36:32;20.70;99.90
41294;DHT22;27037;52.010;4.446;2023-07-29T09:38:58;20.70;99.90
41294;DHT22;27037;52.010;4.446;2023-07-29T09:41:25;20.70;99.90
41294;DHT22;27037;52.010;4.446;2023-07-29T09:43:59;20.70;99.90
41294;DHT22;27037;52.010;4.446;2023-07-29T09:46:35;20.70;99.90
41294;DHT22;27037;52.010;4.446;2023-07-29T09:49:05;20.60;99.90
41294;DHT22;27037;52.010;4.446;2023-07-29T09:51:31;20.60;99.90
41294;DHT22;27037;52.010;4.446;2023-07-29T09:53:57;20.60;99.90
41294;DHT22;27037;52.010;4.446;2023-07-29T09:56:25;20.60;99.90
41294;DHT22;27037;52.010;4.446;2023-07-29T09:58:57;20.70;99.90
41294;DHT22;27037;52.010;4.446;2023-07-29T10:01:24;20.80;99.90
41294;DHT22;27037;52.010;4.446;2023-07-29T10:03:49;20.80;99.90
41294;DHT22;27037;52.010;4.446;2023-07-29T10:06:15;20.80;99.90
41294;DHT22;27037;52.010;4.446;2023-07-29T10:08:42;20.80;99.90
41294;DHT22;27037;52.010;4.446;2023-07-29T10:11:09;20.80;99.90
41294;DHT22;27037;52.010;4.446;2023-07-29T10:13:36;20.80;99.90
41294;DHT22;27037;52.010;4.446;2023-07-29T10:16:03;20.70;99.90
41294;DHT22;27037;52.010;4.446;2023-07-29T10:18:30;20.60;99.90
41294;DHT22;27037;52.010;4.446;2023-07-29T10:20:58;20.50;99.90
41294;DHT22;27037;52.010;4.446;2023-07-29T10:23:26;20.40;99.90
41294;DHT22;27037;52.010;4.446;2023-07-29T10:26:02;20.30;99.90
41294;DHT22;27037;52.010;4.446;2023-07-29T10:28:32;20.20;99.90
41294;DHT22;27037;52.010;4.446;2023-07-29T10:30:58;20.10;99.90
41294;DHT22;27037;52.010;4.446;2023-07-29T10:33:25;20.10;99.90
41294;DHT22;27037;52.010;4.446;2023-07-29T10:35:52;20.10;99.90
41294;DHT22;27037;52.010;4.446;2023-07-29T10:38:20;20.00;99.90
41294;DHT22;27037;52.010;4.446;2023-07-29T10:43:27;19.80;99.90
41294;DHT22;27037;52.010;4.446;2023-07-29T10:45:53;19.80;99.90
41294;DHT22;27037;52.010;4.446;2023-07-29T10:53:47;19.90;99.90
41294;DHT22;27037;52.010;4.446;2023-07-29T10:56:13;20.00;99.90
41294;DHT22;27037;52.010;4.446;2023-07-29T10:58:49;20.10;99.90
41294;DHT22;27037;52.010;4.446;2023-07-29T11:01:26;20.30;99.90
41294;DHT22;27037;52.010;4.446;2023-07-29T11:15:17;20.80;99.90
41294;DHT22;27037;52.010;4.446;2023-07-29T11:18:00;20.70;99.90
41294;DHT22;27037;52.010;4.446;2023-07-29T11:20:28;20.70;99.90
41294;DHT22;27037;52.010;4.446;2023-07-29T11:22:55;20.70;99.90
41294;DHT22;27037;52.010;4.446;2023-07-29T11:25:23;20.70;99.90
41294;DHT22;27037;52.010;4.446;2023-07-29T11:27:50;20.70;99.90
41294;DHT22;27037;52.010;4.446;2023-07-29T11:30:16;20.70;99.90
41294;DHT22;27037;52.010;4.446;2023-07-29T11:32:44;20.70;99.90
41294;DHT22;27037;52.010;4.446;2023-07-29T11:35:15;20.80;99.90
41294;DHT22;27037;52.010;4.446;2023-07-29T11:37:45;20.80;99.90
41294;DHT22;27037;52.010;4.446;2023-07-29T11:40:19;20.80;99.90
41294;DHT22;27037;52.010;4.446;2023-07-29T11:42:46;20.80;99.90
41294;DHT22;27037;52.010;4.446;2023-07-29T11:45:13;20.90;99.90
41294;DHT22;27037;52.010;4.446;2023-07-29T11:47:38;21.00;99.90
41294;DHT22;27037;52.010;4.446;2023-07-29T11:50:06;21.10;99.90
41294;DHT22;27037;52.010;4.446;2023-07-29T11:52:35;21.10;99.90
41294;DHT22;27037;52.010;4.446;2023-07-29T11:55:02;21.10;99.90
41294;DHT22;27037;52.010;4.446;2023-07-29T11:57:29;21.10;99.90
41294;DHT22;27037;52.010;4.446;2023-07-29T11:59:55;21.20;99.90
41294;DHT22;27037;52.010;4.446;2023-07-29T12:02:21;21.30;99.90
41294;DHT22;27037;52.010;4.446;2023-07-29T12:04:47;21.30;99.90
41294;DHT22;27037;52.010;4.446;2023-07-29T12:07:17;21.30;99.90
41294;DHT22;27037;52.010;4.446;2023-07-29T12:09:45;21.30;99.90
41294;DHT22;27037;52.010;4.446;2023-07-29T12:12:11;21.30;99.90
41294;DHT22;27037;52.010;4.446;2023-07-29T12:14:37;21.40;99.90
41294;DHT22;27037;52.010;4.446;2023-07-29T12:17:05;21.40;99.90
41294;DHT22;27037;52.010;4.446;2023-07-29T12:19:38;21.30;99.90
41294;DHT22;27037;52.010;4.446;2023-07-29T12:22:06;21.30;99.90
41294;DHT22;27037;52.010;4.446;2023-07-29T12:24:33;21.30;99.90
41294;DHT22;27037;52.010;4.446;2023-07-29T12:26:59;21.40;99.90
41294;DHT22;27037;52.010;4.446;2023-07-29T12:29:25;21.50;99.90
41294;DHT22;27037;52.010;4.446;2023-07-29T12:32:03;21.60;99.90
41294;DHT22;27037;52.010;4.446;2023-07-29T12:34:30;21.70;99.90
41294;DHT22;27037;52.010;4.446;2023-07-29T12:36:58;21.80;99.90
41294;DHT22;27037;52.010;4.446;2023-07-29T12:39:28;22.00;99.90
41294;DHT22;27037;52.010;4.446;2023-07-29T12:41:57;22.10;99.90
41294;DHT22;27037;52.010;4.446;2023-07-29T12:44:25;22.20;99.90
41294;DHT22;27037;52.010;4.446;2023-07-29T12:46:51;22.40;99.90
41294;DHT22;27037;52.010;4.446;2023-07-29T12:49:17;22.40;99.90
41294;DHT22;27037;52.010;4.446;2023-07-29T12:51:43;22.60;99.90
41294;DHT22;27037;52.010;4.446;2023-07-29T12:54:09;22.70;99.90
41294;DHT22;27037;52.010;4.446;2023-07-29T12:56:34;22.90;99.90
41294;DHT22;27037;52.010;4.446;2023-07-29T12:59:01;23.00;99.90
41294;DHT22;27037;52.010;4.446;2023-07-29T13:01:27;23.20;99.90
41294;DHT22;27037;52.010;4.446;2023-07-29T13:03:53;23.30;99.90
41294;DHT22;27037;52.010;4.446;2023-07-29T13:06:20;23.20;99.90
41294;DHT22;27037;52.010;4.446;2023-07-29T13:08:46;23.10;99.90
41294;DHT22;27037;52.010;4.446;2023-07-29T13:11:14;23.10;99.90
41294;DHT22;27037;52.010;4.446;2023-07-29T13:13:40;23.10;99.90
41294;DHT22;27037;52.010;4.446;2023-07-29T13:16:05;23.10;99.90
41294;DHT22;27037;52.010;4.446;2023-07-29T13:18:32;23.10;99.90
41294;DHT22;27037;52.010;4.446;2023-07-29T13:20:57;23.10;99.90
41294;DHT22;27037;52.010;4.446;2023-07-29T13:23:23;23.20;99.90
41294;DHT22;27037;52.010;4.446;2023-07-29T13:25:49;23.20;99.90
41294;DHT22;27037;52.010;4.446;2023-07-29T13:28:16;23.20;99.90
41294;DHT22;27037;52.010;4.446;2023-07-29T13:30:42;23.30;99.90
41294;DHT22;27037;52.010;4.446;2023-07-29T13:33:08;23.40;99.90
41294;DHT22;27037;52.010;4.446;2023-07-29T13:35:33;23.50;99.90
41294;DHT22;27037;52.010;4.446;2023-07-29T13:38:00;23.40;99.90
41294;DHT22;27037;52.010;4.446;2023-07-29T13:40:25;23.50;99.90
41294;DHT22;27037;52.010;4.446;2023-07-29T13:42:51;23.50;99.90
41294;DHT22;27037;52.010;4.446;2023-07-29T13:45:17;23.50;99.90
41294;DHT22;27037;52.010;4.446;2023-07-29T13:47:43;23.50;99.90
41294;DHT22;27037;52.010;4.446;2023-07-29T13:50:09;23.60;99.90
41294;DHT22;27037;52.010;4.446;2023-07-29T13:52:36;23.70;99.90
41294;DHT22;27037;52.010;4.446;2023-07-29T13:55:03;23.80;99.90
41294;DHT22;27037;52.010;4.446;2023-07-29T13:57:28;23.90;99.90
41294;DHT22;27037;52.010;4.446;2023-07-29T13:59:54;24.00;99.90
41294;DHT22;27037;52.010;4.446;2023-07-29T14:02:20;24.00;99.90
41294;DHT22;27037;52.010;4.446;2023-07-29T14:04:45;24.10;99.90
41294;DHT22;27037;52.010;4.446;2023-07-29T14:07:11;24.10;99.90
41294;DHT22;27037;52.010;4.446;2023-07-29T14:09:36;24.20;99.90
41294;DHT22;27037;52.010;4.446;2023-07-29T14:12:04;24.30;99.90
41294;DHT22;27037;52.010;4.446;2023-07-29T14:14:30;24.30;99.90
41294;DHT22;27037;52.010;4.446;2023-07-29T14:16:56;24.30;99.90
41294;DHT22;27037;52.010;4.446;2023-07-29T14:19:22;24.20;99.90
41294;DHT22;27037;52.010;4.446;2023-07-29T14:21:48;24.10;99.90
41294;DHT22;27037;52.010;4.446;2023-07-29T14:24:14;24.00;99.90
41294;DHT22;27037;52.010;4.446;2023-07-29T14:26:41;24.00;99.90
41294;DHT22;27037;52.010;4.446;2023-07-29T14:29:06;24.10;99.90
41294;DHT22;27037;52.010;4.446;2023-07-29T14:31:32;24.20;99.90
41294;DHT22;27037;52.010;4.446;2023-07-29T14:33:58;24.10;99.90
41294;DHT22;27037;52.010;4.446;2023-07-29T14:36:25;24.10;99.90
41294;DHT22;27037;52.010;4.446;2023-07-29T14:38:50;24.00;99.90
41294;DHT22;27037;52.010;4.446;2023-07-29T14:41:16;24.10;99.90
41294;DHT22;27037;52.010;4.446;2023-07-29T14:43:42;24.20;99.90
41294;DHT22;27037;52.010;4.446;2023-07-29T14:46:07;24.10;99.90
41294;DHT22;27037;52.010;4.446;2023-07-29T14:48:33;24.10;99.90
41294;DHT22;27037;52.010;4.446;2023-07-29T14:50:59;24.10;99.90
41294;DHT22;27037;52.010;4.446;2023-07-29T14:53:24;24.00;99.90
41294;DHT22;27037;52.010;4.446;2023-07-29T14:55:50;24.00;99.90
41294;DHT22;27037;52.010;4.446;2023-07-29T14:58:16;23.90;99.90
41294;DHT22;27037;52.010;4.446;2023-07-29T15:00:42;23.90;99.90
41294;DHT22;27037;52.010;4.446;2023-07-29T15:03:08;23.90;99.90
41294;DHT22;27037;52.010;4.446;2023-07-29T15:05:33;24.00;99.90
41294;DHT22;27037;52.010;4.446;2023-07-29T15:07:59;24.00;99.90
41294;DHT22;27037;52.010;4.446;2023-07-29T15:10:25;24.00;99.90
41294;DHT22;27037;52.010;4.446;2023-07-29T15:12:51;24.00;99.90
41294;DHT22;27037;52.010;4.446;2023-07-29T15:15:17;24.00;99.90
41294;DHT22;27037;52.010;4.446;2023-07-29T15:17:43;23.90;99.90
41294;DHT22;27037;52.010;4.446;2023-07-29T15:20:09;23.90;99.90
41294;DHT22;27037;52.010;4.446;2023-07-29T15:22:34;24.00;99.90
41294;DHT22;27037;52.010;4.446;2023-07-29T15:25:00;24.00;99.90
41294;DHT22;27037;52.010;4.446;2023-07-29T15:27:29;24.10;99.90
41294;DHT22;27037;52.010;4.446;2023-07-29T15:29:55;24.00;99.90
41294;DHT22;27037;52.010;4.446;2023-07-29T15:32:22;24.00;99.90
41294;DHT22;27037;52.010;4.446;2023-07-29T15:34:48;24.00;99.90
41294;DHT22;27037;52.010;4.446;2023-07-29T15:37:15;23.90;99.90
41294;DHT22;27037;52.010;4.446;2023-07-29T15:39:41;23.80;99.90
41294;DHT22;27037;52.010;4.446;2023-07-29T15:42:07;23.80;99.90
41294;DHT22;27037;52.010;4.446;2023-07-29T15:44:32;23.80;99.90
41294;DHT22;27037;52.010;4.446;2023-07-29T15:46:58;23.70;99.90